Time;durP1;ratioP1;P1;durP2;ratioP2;P2;SDS_P1;SDS_P2;PMS_P1;PMS_P2;Temp;Humidity;BMP_temperature;BMP_pressure;BME280_temperature;BME280_humidity;BME280_pressure;Samples;Min_cycle;Max_cycle;Signal;HPM_P1;HPM_P2
2023/08/31 00:00:12;;;;;;;3.10;1.10;;;;;;;11.49;89.08;100717.56;7396089;19;19930;-76
2023/08/31 00:02:44;;;;;;;2.08;1.20;;;;;;;11.48;89.14;100716.72;7398887;19;19918;-77
2023/08/31 00:05:13;;;;;;;3.03;1.30;;;;;;;11.49;89.16;100714.84;7391978;19;19945;-77
2023/08/31 00:07:42;;;;;;;2.35;1.83;;;;;;;11.50;89.11;100716.53;7397203;19;19922;-77
2023/08/31 00:10:11;;;;;;;4.38;1.55;;;;;;;11.49;89.05;100714.84;7397051;19;20347;-77
2023/08/31 00:12:40;;;;;;;3.92;1.13;;;;;;;11.47;89.28;100709.66;7400098;19;19934;-77
2023/08/31 00:15:10;;;;;;;3.05;1.23;;;;;;;11.47;89.33;100700.75;7388095;19;19922;-77
2023/08/31 00:17:39;;;;;;;1.85;1.17;;;;;;;11.45;89.08;100702.78;7395833;19;19930;-77
2023/08/31 00:20:12;;;;;;;4.07;1.48;;;;;;;11.42;89.23;100692.38;7399716;19;19927;-77
2023/08/31 00:22:41;;;;;;;1.58;1.00;;;;;;;11.40;88.88;100697.94;7396839;19;19922;-77
2023/08/31 00:25:30;;;;;;;2.83;1.35;;;;;;;11.37;88.91;100701.00;7393090;19;19990;-77
2023/08/31 00:28:04;;;;;;;4.93;0.95;;;;;;;11.33;88.81;100700.56;7399214;19;19941;-77
2023/08/31 00:30:33;;;;;;;1.77;1.05;;;;;;;11.30;89.00;100697.41;7401924;19;20340;-77
2023/08/31 00:33:02;;;;;;;2.83;1.10;;;;;;;11.27;89.10;100700.44;7399207;19;19943;-77
2023/08/31 00:35:33;;;;;;;2.10;1.05;;;;;;;11.25;89.07;100703.34;7390105;19;19922;-77
2023/08/31 00:38:04;;;;;;;6.22;1.27;;;;;;;11.24;88.96;100700.81;7400353;19;19947;-76
2023/08/31 00:40:38;;;;;;;2.60;1.00;;;;;;;11.22;88.80;100705.53;7398640;19;20348;-77
2023/08/31 00:43:07;;;;;;;4.07;1.15;;;;;;;11.19;88.63;100711.31;7396430;19;20272;-77
2023/08/31 00:45:36;;;;;;;1.67;1.20;;;;;;;11.17;88.91;100703.44;7390040;19;19948;-77
2023/08/31 00:48:06;;;;;;;2.28;0.90;;;;;;;11.16;88.77;100706.31;7395118;19;19982;-77
2023/08/31 00:50:37;;;;;;;4.90;1.48;;;;;;;11.14;88.69;100698.38;7398015;19;19923;-77
2023/08/31 00:53:06;;;;;;;3.20;1.08;;;;;;;11.15;88.71;100693.84;7395652;19;19942;-77
2023/08/31 00:55:35;;;;;;;2.38;1.60;;;;;;;11.14;88.71;100701.09;7387256;19;20265;-77
2023/08/31 00:58:05;;;;;;;4.22;1.60;;;;;;;11.13;88.67;100694.00;7394330;19;19930;-77
2023/08/31 01:00:44;;;;;;;3.83;1.20;;;;;;;11.13;88.79;100695.91;7397507;19;19927;-77
2023/08/31 01:03:16;;;;;;;1.55;1.00;;;;;;;11.10;89.02;100699.78;7397512;19;19922;-77
2023/08/31 01:05:55;;;;;;;1.42;1.00;;;;;;;11.10;89.03;100693.56;7390456;19;19954;-77
2023/08/31 01:08:33;;;;;;;3.33;1.20;;;;;;;11.09;89.32;100705.38;7395034;19;19926;-77
2023/08/31 01:11:27;;;;;;;4.20;1.23;;;;;;;11.10;89.18;100704.34;7392527;19;19953;-78
2023/08/31 01:14:07;;;;;;;1.48;0.88;;;;;;;11.09;88.97;100708.06;7395508;19;20032;-78
2023/08/31 01:16:37;;;;;;;7.22;1.50;;;;;;;11.15;88.91;100707.31;7389803;19;20482;-77
2023/08/31 01:19:19;;;;;;;2.35;1.10;;;;;;;11.15;88.74;100708.16;7395589;19;20867;-78
2023/08/31 01:21:54;;;;;;;1.52;1.00;;;;;;;11.18;88.82;100701.53;7395841;19;19921;-77
2023/08/31 01:24:26;;;;;;;2.85;1.20;;;;;;;11.18;88.72;100705.09;7393055;19;19918;-77
2023/08/31 01:26:56;;;;;;;2.80;0.95;;;;;;;11.17;88.65;100711.53;7390077;19;19947;-77
2023/08/31 01:29:25;;;;;;;3.55;1.15;;;;;;;11.15;88.79;100701.94;7391395;19;20002;-78
2023/08/31 01:31:54;;;;;;;4.35;0.90;;;;;;;11.15;88.68;100701.94;7393969;19;20360;-77
2023/08/31 01:34:22;;;;;;;3.90;0.93;;;;;;;11.13;88.45;100698.59;7394087;19;19949;-78
2023/08/31 01:36:55;;;;;;;2.97;1.23;;;;;;;11.12;88.61;100697.75;7398681;19;19922;-78
2023/08/31 01:39:34;;;;;;;2.08;1.00;;;;;;;11.09;88.74;100708.06;7397930;19;19918;-78
2023/08/31 01:42:18;;;;;;;1.83;0.88;;;;;;;11.02;88.83;100707.97;7363442;19;19975;-78
2023/08/31 01:44:50;;;;;;;4.88;1.80;;;;;;;11.06;88.87;100711.13;7380086;19;20628;-78
2023/08/31 01:47:20;;;;;;;5.18;1.00;;;;;;;11.04;88.73;100711.31;7391110;19;20381;-77
2023/08/31 01:49:48;;;;;;;2.30;0.90;;;;;;;11.02;88.53;100704.41;7400288;19;19922;-78
2023/08/31 01:52:17;;;;;;;1.27;0.60;;;;;;;11.03;89.04;100711.50;7400181;19;19919;-77
2023/08/31 01:54:48;;;;;;;1.58;0.80;;;;;;;11.00;88.85;100709.19;7391032;19;19927;-77
2023/08/31 01:57:17;;;;;;;3.85;1.08;;;;;;;10.99;88.73;100704.81;7399488;19;20352;-77
2023/08/31 01:59:46;;;;;;;1.60;0.80;;;;;;;10.99;88.91;100702.09;7401668;19;20367;-78
2023/08/31 02:02:14;;;;;;;4.70;1.10;;;;;;;10.95;88.99;100701.63;7400808;19;20327;-78
2023/08/31 02:04:43;;;;;;;2.45;1.20;;;;;;;10.93;89.13;100704.50;7394567;19;19918;-77
2023/08/31 02:07:12;;;;;;;4.10;1.85;;;;;;;10.90;89.43;100693.25;7397046;19;20680;-78
2023/08/31 02:09:40;;;;;;;2.67;1.40;;;;;;;10.85;89.24;100685.72;7401356;19;20265;-78
2023/08/31 02:12:12;;;;;;;5.93;1.83;;;;;;;10.81;89.32;100695.19;7398657;19;19922;-78
2023/08/31 02:14:40;;;;;;;3.85;1.58;;;;;;;10.77;89.49;100699.28;7392643;19;19923;-78
2023/08/31 02:17:09;;;;;;;4.85;1.80;;;;;;;10.74;89.62;100688.84;7400511;19;19950;-77
2023/08/31 02:19:37;;;;;;;7.05;1.42;;;;;;;10.73;89.68;100691.75;7401405;19;19936;-78
2023/08/31 02:22:06;;;;;;;4.30;1.33;;;;;;;10.74;89.99;100690.72;7399692;19;19922;-78
2023/08/31 02:24:35;;;;;;;5.38;1.30;;;;;;;10.72;90.01;100698.97;7394755;19;19929;-78
2023/08/31 02:27:03;;;;;;;2.97;1.45;;;;;;;10.70;89.88;100697.50;7402377;19;19942;-77
2023/08/31 02:29:35;;;;;;;3.72;1.80;;;;;;;10.68;89.67;100700.38;7401668;19;19987;-77
2023/08/31 02:32:06;;;;;;;4.95;1.73;;;;;;;10.67;89.65;100701.38;7403062;19;20372;-77
2023/08/31 02:34:35;;;;;;;4.85;1.85;;;;;;;10.65;89.72;100692.66;7399656;19;19918;-77
2023/08/31 02:37:04;;;;;;;2.20;1.48;;;;;;;10.65;89.50;100700.75;7405547;19;19931;-77
2023/08/31 02:39:33;;;;;;;4.13;1.30;;;;;;;10.63;89.34;100697.38;7397836;19;19943;-78
2023/08/31 02:42:21;;;;;;;4.68;1.45;;;;;;;10.61;89.64;100690.50;7394823;19;19919;-77
2023/08/31 02:44:57;;;;;;;2.55;1.20;;;;;;;10.59;89.73;100687.16;7392941;19;19922;-77
2023/08/31 02:47:25;;;;;;;4.10;1.77;;;;;;;10.58;89.92;100685.47;7398275;19;20265;-77
2023/08/31 02:49:54;;;;;;;2.35;1.30;;;;;;;10.58;89.80;100688.16;7400924;19;19919;-77
2023/08/31 02:52:23;;;;;;;2.20;1.20;;;;;;;10.55;89.76;100689.38;7397997;19;19943;-77
2023/08/31 02:54:51;;;;;;;3.10;1.20;;;;;;;10.53;90.04;100683.31;7390480;19;20261;-77
2023/08/31 02:57:40;;;;;;;4.75;1.73;;;;;;;10.53;90.28;100691.38;7395650;19;19922;-78
2023/08/31 03:00:13;;;;;;;8.23;1.52;;;;;;;10.52;90.21;100684.34;7399887;19;19939;-77
2023/08/31 03:02:43;;;;;;;2.35;1.27;;;;;;;10.50;90.04;100682.84;7401247;19;19929;-77
2023/08/31 03:05:12;;;;;;;4.10;1.25;;;;;;;10.48;90.16;100685.75;7391473;19;19933;-77
2023/08/31 03:07:41;;;;;;;2.90;1.63;;;;;;;10.44;90.08;100687.13;7395559;19;20352;-77
2023/08/31 03:10:10;;;;;;;4.22;1.33;;;;;;;10.43;90.15;100688.13;7399039;19;19934;-77
2023/08/31 03:12:39;;;;;;;3.50;1.30;;;;;;;10.41;90.10;100684.75;7399389;19;19926;-77
2023/08/31 03:15:11;;;;;;;2.72;1.35;;;;;;;10.39;90.22;100678.75;7391674;19;19946;-77
2023/08/31 03:17:40;;;;;;;5.07;1.65;;;;;;;10.37;90.31;100680.75;7399417;19;19934;-77
2023/08/31 03:20:10;;;;;;;1.83;1.30;;;;;;;10.35;90.59;100691.72;7400366;19;20364;-77
2023/08/31 03:22:38;;;;;;;3.40;1.38;;;;;;;10.33;90.42;100682.97;7402776;19;19946;-77
2023/08/31 03:25:08;;;;;;;4.25;0.90;;;;;;;10.32;90.46;100680.47;7395015;19;19955;-77
2023/08/31 03:27:36;;;;;;;2.90;1.50;;;;;;;10.32;90.83;100686.69;7401455;19;19942;-77
2023/08/31 03:30:05;;;;;;;3.83;1.77;;;;;;;10.29;90.62;100686.22;7400819;19;19923;-76
2023/08/31 03:32:56;;;;;;;;;;;;;;;10.15;92.11;100681.56;7403966;19;20275;-77
2023/08/31 03:35:26;;;;;;;3.40;1.73;;;;;;;10.21;91.32;100680.88;7393334;19;19918;-77
2023/08/31 03:37:55;;;;;;;4.63;1.75;;;;;;;10.21;91.00;100687.13;7398628;19;20345;-76
2023/08/31 03:40:25;;;;;;;4.53;1.48;;;;;;;10.22;91.04;100693.34;7400033;19;19919;-77
2023/08/31 03:42:54;;;;;;;3.40;1.73;;;;;;;10.23;91.18;100700.38;7399712;19;20575;-77
2023/08/31 03:45:24;;;;;;;5.05;1.63;;;;;;;10.21;91.39;100686.28;7391461;19;19929;-77
2023/08/31 03:47:53;;;;;;;6.95;1.85;;;;;;;10.20;91.26;100681.91;7399466;19;19934;-77
2023/08/31 03:50:24;;;;;;;3.58;1.80;;;;;;;10.19;91.85;100682.91;7399450;19;19954;-77
2023/08/31 03:52:53;;;;;;;4.03;1.77;;;;;;;10.20;91.90;100688.13;7398521;19;19922;-76
2023/08/31 03:55:21;;;;;;;4.70;1.98;;;;;;;10.20;91.61;100685.44;7393022;19;19930;-77
2023/08/31 03:57:50;;;;;;;4.68;1.70;;;;;;;10.21;91.75;100686.28;7399379;19;20363;-77
2023/08/31 04:00:19;;;;;;;3.45;2.00;;;;;;;10.21;92.07;100686.28;7395350;19;19923;-77
2023/08/31 04:02:48;;;;;;;4.32;2.10;;;;;;;10.21;91.89;100688.97;7397228;19;20321;-77
2023/08/31 04:05:16;;;;;;;5.55;2.15;;;;;;;10.23;91.82;100689.59;7387831;19;19926;-76
2023/08/31 04:07:47;;;;;;;3.55;2.30;;;;;;;10.26;91.83;100695.50;7398795;19;19922;-77
2023/08/31 04:10:16;;;;;;;3.80;1.70;;;;;;;10.27;91.82;100689.06;7396669;19;19922;-78
2023/08/31 04:12:45;;;;;;;3.65;1.60;;;;;;;10.25;91.41;100688.44;7398413;19;19926;-77
2023/08/31 04:15:14;;;;;;;4.03;2.30;;;;;;;10.24;91.71;100681.34;7388104;19;19931;-77
2023/08/31 04:17:42;;;;;;;6.28;2.22;;;;;;;10.24;91.85;100691.28;7395231;19;20419;-77
2023/08/31 04:20:12;;;;;;;3.30;2.00;;;;;;;10.22;91.77;100688.78;7395989;19;20274;-78
2023/08/31 04:22:40;;;;;;;4.20;2.15;;;;;;;10.22;91.68;100686.09;7397203;19;19926;-77
2023/08/31 04:25:12;;;;;;;4.53;1.92;;;;;;;10.19;91.95;100688.28;7390145;19;19942;-78
2023/08/31 04:27:41;;;;;;;5.00;2.17;;;;;;;10.19;92.05;100691.81;7396934;19;19918;-78
2023/08/31 04:30:11;;;;;;;7.85;2.58;;;;;;;10.20;91.95;100692.66;7397270;19;19918;-78
2023/08/31 04:32:39;;;;;;;4.15;2.22;;;;;;;10.19;92.35;100688.28;7398184;19;19923;-77
2023/08/31 04:35:09;;;;;;;4.70;1.90;;;;;;;10.19;92.43;100686.44;7390853;19;19927;-78
2023/08/31 04:37:37;;;;;;;4.03;1.70;;;;;;;10.19;91.96;100689.13;7397318;19;19922;-78
2023/08/31 04:40:08;;;;;;;3.90;2.35;;;;;;;10.22;92.02;100688.78;7398633;19;20020;-78
2023/08/31 04:42:42;;;;;;;5.15;2.13;;;;;;;10.25;92.02;100690.28;7397561;19;19926;-78
2023/08/31 04:45:12;;;;;;;5.97;2.50;;;;;;;10.28;92.05;100695.28;7389231;19;19933;-77
2023/08/31 04:47:42;;;;;;;4.25;2.25;;;;;;;10.30;92.02;100699.50;7397028;19;19922;-78
2023/08/31 04:50:11;;;;;;;5.38;2.78;;;;;;;10.34;92.29;100698.13;7398162;19;19915;-78
2023/08/31 04:52:39;;;;;;;6.45;2.80;;;;;;;10.36;92.32;100701.47;7397035;19;19926;-78
2023/08/31 04:55:10;;;;;;;4.50;2.60;;;;;;;10.39;92.57;100700.28;7388731;19;20294;-78
2023/08/31 04:58:02;;;;;;;3.75;2.50;;;;;;;10.40;92.54;100699.25;7393469;19;19918;-78
2023/08/31 05:00:51;;;;;;;5.75;2.58;;;;;;;10.43;92.62;100712.38;7393675;19;19918;-78
2023/08/31 05:03:19;;;;;;;5.28;2.63;;;;;;;10.46;92.67;100712.00;7384365;19;19930;-78
2023/08/31 05:05:48;;;;;;;5.10;2.95;;;;;;;10.46;92.42;100706.59;7389055;19;20218;-78
2023/08/31 05:08:16;;;;;;;3.88;2.30;;;;;;;10.50;92.50;100717.84;7384519;19;19951;-78
2023/08/31 05:10:47;;;;;;;4.47;2.50;;;;;;;10.52;92.49;100716.69;7401687;19;19930;-79
2023/08/31 05:13:18;;;;;;;4.30;2.60;;;;;;;10.55;92.66;100719.00;7402847;19;19927;-78
2023/08/31 05:15:48;;;;;;;5.50;2.80;;;;;;;10.59;92.23;100723.00;7402008;19;19983;-78
2023/08/31 05:18:16;;;;;;;5.93;3.40;;;;;;;10.64;92.37;100726.00;7392954;19;19930;-78
2023/08/31 05:20:48;;;;;;;5.18;2.60;;;;;;;10.70;92.42;100730.66;7401050;19;19926;-78
2023/08/31 05:23:17;;;;;;;6.32;3.00;;;;;;;10.75;92.37;100724.72;7401953;19;20013;-78
2023/08/31 05:25:45;;;;;;;5.13;3.17;;;;;;;10.81;92.21;100730.22;7403776;19;19922;-78
2023/08/31 05:28:14;;;;;;;5.05;3.10;;;;;;;10.87;92.44;100732.19;7395565;19;19923;-78
2023/08/31 05:30:54;;;;;;;5.53;3.20;;;;;;;10.90;92.44;100731.84;7403054;19;19918;-78
2023/08/31 05:33:25;;;;;;;8.98;3.65;;;;;;;10.96;92.13;100724.03;7400664;19;19935;-77
2023/08/31 05:35:54;;;;;;;6.07;2.85;;;;;;;10.99;92.39;100726.38;7407849;19;19922;-78
2023/08/31 05:38:23;;;;;;;8.57;3.72;;;;;;;11.00;92.10;100731.59;7399211;19;19910;-78
2023/08/31 05:40:51;;;;;;;5.78;3.00;;;;;;;11.02;92.24;100740.31;7404080;19;19937;-78
2023/08/31 05:43:20;;;;;;;5.15;3.33;;;;;;;11.04;92.20;100743.66;7396374;19;20282;-78
2023/08/31 05:45:51;;;;;;;4.90;3.30;;;;;;;11.06;92.53;100740.78;7400983;19;20369;-77
2023/08/31 05:48:20;;;;;;;;;;;;;;;10.97;93.33;100739.16;7397404;19;19919;-78
2023/08/31 05:50:49;;;;;;;4.35;2.92;;;;;;;11.03;92.46;100742.00;7402162;19;19927;-78
2023/08/31 05:53:38;;;;;;;4.45;2.92;;;;;;;11.04;92.46;100743.66;7399054;19;20348;-78
2023/08/31 05:56:07;;;;;;;4.53;2.97;;;;;;;11.06;92.12;100740.78;7398954;19;20373;-78
2023/08/31 05:58:36;;;;;;;5.60;3.70;;;;;;;11.06;92.27;100752.41;7396772;19;19933;-78
2023/08/31 06:01:08;;;;;;;4.47;3.13;;;;;;;11.07;92.24;100755.94;7402277;19;19919;-78
2023/08/31 06:03:37;;;;;;;5.20;3.13;;;;;;;11.07;92.13;100759.47;7400113;19;19918;-78
2023/08/31 06:06:06;;;;;;;4.20;3.00;;;;;;;11.08;92.42;100755.75;7394330;19;19928;-77
2023/08/31 06:08:34;;;;;;;4.80;3.22;;;;;;;11.09;92.54;100760.09;7398976;19;19932;-76
2023/08/31 06:11:03;;;;;;;5.93;3.08;;;;;;;11.13;92.50;100763.31;7397454;19;20379;-77
2023/08/31 06:13:31;;;;;;;6.85;3.97;;;;;;;11.13;92.61;100768.69;7398348;19;20276;-77
2023/08/31 06:16:00;;;;;;;6.45;3.03;;;;;;;11.15;92.98;100766.63;7391569;19;19918;-77
2023/08/31 06:18:31;;;;;;;6.72;3.45;;;;;;;11.19;92.61;100767.94;7401689;19;19951;-77
2023/08/31 06:21:00;;;;;;;5.68;3.15;;;;;;;11.22;92.90;100773.81;7386957;19;19954;-79
2023/08/31 06:23:29;;;;;;;4.90;2.88;;;;;;;11.25;93.01;100767.22;7400541;19;19954;-78
2023/08/31 06:25:57;;;;;;;6.03;3.63;;;;;;;11.28;92.76;100773.06;7388854;19;20579;-78
2023/08/31 06:28:26;;;;;;;5.78;3.22;;;;;;;11.33;93.14;100780.63;7404522;19;19986;-78
2023/08/31 06:30:54;;;;;;;4.72;3.03;;;;;;;11.37;92.89;100784.63;7399860;19;19951;-78
2023/08/31 06:33:23;;;;;;;6.32;3.97;;;;;;;11.41;92.64;100788.63;7395198;19;19922;-79
2023/08/31 06:35:54;;;;;;;7.20;4.03;;;;;;;11.45;92.88;100787.22;7387433;19;20651;-79
2023/08/31 06:38:44;;;;;;;6.53;3.20;;;;;;;11.50;93.04;100787.53;7396307;19;20304;-79
2023/08/31 06:41:13;;;;;;;6.38;3.25;;;;;;;11.57;93.01;100793.00;7396519;19;19922;-79
2023/08/31 06:43:41;;;;;;;5.57;3.35;;;;;;;11.65;92.91;100798.34;7393443;19;19923;-79
2023/08/31 06:46:10;;;;;;;4.90;3.30;;;;;;;11.71;92.65;100800.28;7391624;19;20592;-78
2023/08/31 06:48:39;;;;;;;6.10;3.35;;;;;;;11.75;92.87;100793.50;7400750;19;19937;-79
2023/08/31 06:51:10;;;;;;;5.47;3.10;;;;;;;11.79;92.59;100800.19;7401350;19;20242;-78
2023/08/31 06:53:39;;;;;;;7.60;3.20;;;;;;;11.86;92.50;100797.63;7394543;19;19918;-79
2023/08/31 06:56:08;;;;;;;4.45;2.95;;;;;;;11.91;92.61;100797.91;7395518;19;19958;-78
2023/08/31 06:58:37;;;;;;;5.38;2.40;;;;;;;11.98;92.34;100805.06;7396390;19;19919;-78
2023/08/31 07:01:08;;;;;;;4.15;2.85;;;;;;;12.05;92.46;100807.81;7397520;19;19945;-78
2023/08/31 07:03:37;;;;;;;4.55;2.70;;;;;;;12.12;92.42;100809.56;7393907;19;19927;-79
2023/08/31 07:06:06;;;;;;;3.33;2.50;;;;;;;12.19;91.80;100806.97;7392183;19;19918;-79
2023/08/31 07:08:40;;;;;;;4.57;2.38;;;;;;;12.24;91.95;100810.78;7398333;19;19922;-78
2023/08/31 07:11:09;;;;;;;3.95;2.33;;;;;;;12.30;91.55;100806.47;7396322;19;20006;-79
2023/08/31 07:13:37;;;;;;;4.93;2.50;;;;;;;12.37;91.60;100818.22;7396372;19;19961;-78
2023/08/31 07:16:07;;;;;;;4.60;2.42;;;;;;;12.44;90.87;100819.13;7394895;19;19933;-78
2023/08/31 07:18:36;;;;;;;5.05;2.20;;;;;;;12.52;91.42;100819.00;7399839;19;19949;-78
2023/08/31 07:21:25;;;;;;;3.40;2.08;;;;;;;12.58;90.87;100825.50;7396525;19;19990;-78
2023/08/31 07:23:57;;;;;;;2.92;2.33;;;;;;;12.64;90.63;100830.97;7392753;19;19970;-79
2023/08/31 07:26:25;;;;;;;5.65;2.03;;;;;;;12.69;90.58;100825.84;7395442;19;19923;-78
2023/08/31 07:28:54;;;;;;;5.40;2.17;;;;;;;12.75;90.53;100832.34;7399489;19;19954;-79
2023/08/31 07:31:22;;;;;;;5.45;1.65;;;;;;;12.84;90.18;100822.25;7396083;19;19926;-78
2023/08/31 07:33:51;;;;;;;6.25;1.75;;;;;;;12.92;90.09;100833.78;7390254;19;19923;-78
2023/08/31 07:36:20;;;;;;;3.92;1.77;;;;;;;13.00;89.59;100827.38;7398726;19;19926;-78
2023/08/31 07:38:48;;;;;;;2.55;1.65;;;;;;;13.08;89.65;100833.50;7398272;19;20301;-78
2023/08/31 07:41:19;;;;;;;2.45;1.48;;;;;;;13.15;89.44;100837.16;7397182;19;19926;-78
2023/08/31 07:43:49;;;;;;;3.63;1.50;;;;;;;13.26;89.48;100833.06;7389603;19;20364;-78
2023/08/31 07:46:17;;;;;;;3.10;1.30;;;;;;;13.34;88.95;100835.63;7397858;19;20483;-78
2023/08/31 07:48:48;;;;;;;4.97;1.42;;;;;;;13.41;88.81;100833.84;7395325;19;19922;-78
2023/08/31 07:51:22;;;;;;;3.35;1.55;;;;;;;13.52;88.75;100835.16;7396985;19;19923;-79
2023/08/31 07:53:51;;;;;;;2.70;1.13;;;;;;;13.60;88.00;100838.53;7391963;19;19950;-78
2023/08/31 07:56:22;;;;;;;3.47;1.23;;;;;;;13.68;87.62;100837.53;7396558;19;19923;-78
2023/08/31 07:58:51;;;;;;;3.70;1.00;;;;;;;13.79;87.57;100837.00;7396712;19;19923;-78
2023/08/31 08:01:20;;;;;;;2.78;1.20;;;;;;;13.92;87.46;100833.53;7399640;19;20344;-78
2023/08/31 08:03:49;;;;;;;2.58;1.55;;;;;;;14.04;87.21;100840.06;7389206;19;19915;-78
2023/08/31 08:06:17;;;;;;;2.80;0.70;;;;;;;14.13;86.34;100846.16;7390248;19;20272;-78
2023/08/31 08:08:46;;;;;;;1.80;0.70;;;;;;;14.19;85.90;100848.91;7397166;19;19937;-78
2023/08/31 08:11:15;;;;;;;3.75;0.73;;;;;;;14.25;85.31;100850.78;7396698;19;20374;-78
2023/08/31 08:13:46;;;;;;;6.05;0.60;;;;;;;14.28;84.36;100841.44;7391386;19;19979;-78
2023/08/31 08:16:15;;;;;;;2.25;0.80;;;;;;;14.25;84.40;100845.38;7395334;19;19926;-77
2023/08/31 08:18:43;;;;;;;1.83;0.63;;;;;;;14.21;84.58;100852.25;7397717;19;20347;-78
2023/08/31 08:21:12;;;;;;;4.03;0.80;;;;;;;14.22;84.64;100851.22;7396805;19;19937;-78
2023/08/31 08:23:41;;;;;;;2.80;0.88;;;;;;;14.24;84.92;100857.25;7391273;19;19949;-79
2023/08/31 08:26:09;;;;;;;3.13;1.13;;;;;;;14.31;84.36;100857.28;7390528;19;19930;-79
2023/08/31 08:28:38;;;;;;;2.50;0.52;;;;;;;14.40;83.18;100850.69;7398972;19;19927;-78
2023/08/31 08:31:09;;;;;;;2.00;0.50;;;;;;;14.52;83.45;100854.50;7395772;19;19918;-79
2023/08/31 08:33:38;;;;;;;2.05;0.60;;;;;;;14.65;83.15;100865.38;7392582;19;19978;-78
2023/08/31 08:36:07;;;;;;;1.50;0.40;;;;;;;14.77;82.77;100871.03;7401510;19;19950;-78
2023/08/31 08:38:35;;;;;;;3.60;0.80;;;;;;;14.90;82.17;100873.78;7405988;19;20038;-78
2023/08/31 08:41:26;;;;;;;2.22;0.55;;;;;;;15.02;80.85;100869.44;7401867;19;20458;-78
2023/08/31 08:43:56;;;;;;;1.35;0.55;;;;;;;15.17;81.09;100871.97;7385345;19;19926;-78
2023/08/31 08:46:28;;;;;;;2.35;0.50;;;;;;;15.28;81.03;100882.19;7397406;19;20249;-78
2023/08/31 08:48:57;;;;;;;2.47;0.75;;;;;;;15.42;79.51;100879.28;7396387;19;20284;-78
2023/08/31 08:51:26;;;;;;;1.73;0.32;;;;;;;15.55;79.54;100883.09;7398220;19;19971;-78
2023/08/31 08:53:56;;;;;;;2.60;0.35;;;;;;;15.70;78.92;100890.00;7388601;19;20522;-79
2023/08/31 08:56:26;;;;;;;4.75;0.50;;;;;;;15.84;78.23;100885.34;7393940;19;19933;-78
2023/08/31 08:58:54;;;;;;;2.05;0.40;;;;;;;15.94;76.66;100885.78;7393874;19;19923;-78
2023/08/31 09:01:27;;;;;;;1.67;0.38;;;;;;;15.95;75.70;100884.72;7397865;19;19930;-78
2023/08/31 09:03:56;;;;;;;1.10;0.30;;;;;;;16.01;76.03;100888.47;7390953;19;20272;-78
2023/08/31 09:06:27;;;;;;;1.70;0.40;;;;;;;16.04;75.20;100886.19;7390545;19;19926;-78
2023/08/31 09:08:58;;;;;;;2.20;0.52;;;;;;;16.03;74.74;100895.38;7392974;19;19978;-78
2023/08/31 09:11:27;;;;;;;2.25;0.30;;;;;;;16.14;74.89;100883.84;7399173;19;20297;-78
2023/08/31 09:13:56;;;;;;;1.17;0.35;;;;;;;16.19;75.31;100886.75;7398864;19;19918;-78
2023/08/31 09:16:32;;;;;;;1.73;0.40;;;;;;;16.31;72.79;100879.59;7391101;19;19943;-78
2023/08/31 09:19:01;;;;;;;1.02;0.40;;;;;;;16.23;72.57;100887.16;7398357;19;20365;-78
2023/08/31 09:21:40;;;;;;;1.33;0.40;;;;;;;16.38;71.63;100886.91;7401217;19;19930;-78
2023/08/31 09:24:10;;;;;;;2.78;0.50;;;;;;;16.59;72.75;100886.66;7398741;19;19918;-78
2023/08/31 09:26:41;;;;;;;0.82;0.40;;;;;;;16.59;72.37;100887.50;7393759;19;19922;-78
2023/08/31 09:29:10;;;;;;;0.75;0.38;;;;;;;16.66;73.30;100882.00;7393091;19;19922;-78
2023/08/31 09:31:44;;;;;;;1.13;0.35;;;;;;;16.83;72.25;100875.00;7395207;19;19950;-78
2023/08/31 09:34:13;;;;;;;1.33;0.40;;;;;;;16.83;72.17;100895.97;7392165;19;19922;-79
2023/08/31 09:36:42;;;;;;;2.63;0.60;;;;;;;16.76;71.64;100890.56;7393603;19;20023;-78
2023/08/31 09:39:12;;;;;;;1.42;0.17;;;;;;;16.68;72.29;100885.38;7395632;19;20577;-77
2023/08/31 09:41:55;;;;;;;3.08;0.35;;;;;;;16.73;72.29;100888.28;7396796;19;19933;-78
2023/08/31 09:44:24;;;;;;;1.08;0.30;;;;;;;16.88;72.42;100883.38;7391104;19;19915;-78
2023/08/31 09:46:56;;;;;;;0.73;0.43;;;;;;;16.94;71.50;100890.66;7390562;19;19946;-77
2023/08/31 09:49:25;;;;;;;;;;;;;;;16.93;68.78;100896.31;7398047;19;19914;-78
2023/08/31 09:51:55;;;;;;;5.63;0.82;;;;;;;17.12;69.35;100885.31;7396312;19;19950;-78
2023/08/31 09:54:26;;;;;;;2.05;0.65;;;;;;;17.31;69.47;100886.22;7389568;19;19929;-77
2023/08/31 09:56:58;;;;;;;0.85;0.30;;;;;;;17.43;68.90;100886.38;7399011;19;20423;-77
2023/08/31 09:59:27;;;;;;;2.05;0.30;;;;;;;17.48;67.97;100886.50;7402449;19;19922;-77
2023/08/31 10:02:01;;;;;;;1.75;0.40;;;;;;;17.38;66.33;100886.19;7400050;19;19953;-77
2023/08/31 10:04:33;;;;;;;2.97;0.52;;;;;;;17.11;68.21;100893.72;7398126;19;19965;-78
2023/08/31 10:07:02;;;;;;;1.83;0.50;;;;;;;16.73;70.74;100926.34;7397623;19;20079;-77
2023/08/31 10:09:31;;;;;;;4.05;0.63;;;;;;;16.25;74.06;100913.09;7402678;19;19933;-79
2023/08/31 10:12:00;;;;;;;0.55;0.35;;;;;;;15.74;75.46;100929.28;7400264;19;20261;-78
2023/08/31 10:14:30;;;;;;;1.05;0.38;;;;;;;15.44;76.56;100908.97;7394155;19;19954;-78
2023/08/31 10:17:02;;;;;;;0.50;0.30;;;;;;;15.26;78.37;100928.56;7399033;19;19922;-78
2023/08/31 10:19:30;;;;;;;0.17;0.17;;;;;;;15.16;77.93;100916.44;7400562;19;19940;-78
2023/08/31 10:22:00;;;;;;;1.67;0.40;;;;;;;15.10;77.78;100917.25;7401293;19;19922;-78
2023/08/31 10:24:58;;;;;;;1.50;0.20;;;;;;;15.09;78.79;100918.31;7394942;19;19929;-77
2023/08/31 10:27:27;;;;;;;2.08;0.20;;;;;;;15.23;78.32;100920.81;7400724;19;20396;-78
2023/08/31 10:29:56;;;;;;;1.15;0.30;;;;;;;15.41;77.07;100923.78;7400312;19;19939;-78
2023/08/31 10:32:27;;;;;;;0.52;0.20;;;;;;;15.65;75.49;100916.94;7400842;19;19935;-78
2023/08/31 10:35:07;;;;;;;0.65;0.40;;;;;;;15.88;73.86;100932.78;7392088;19;19930;-79
2023/08/31 10:37:36;;;;;;;0.98;0.30;;;;;;;16.06;73.77;100937.59;7401366;19;19915;-78
2023/08/31 10:40:12;;;;;;;0.95;0.40;;;;;;;15.93;74.27;100941.16;7401921;19;19977;-78
2023/08/31 10:42:47;;;;;;;1.55;0.25;;;;;;;15.75;73.33;100946.38;7400041;19;20325;-78
2023/08/31 10:45:16;;;;;;;1.70;0.47;;;;;;;15.64;75.89;100949.72;7387517;19;19926;-81
2023/08/31 10:47:49;;;;;;;1.67;0.30;;;;;;;15.56;77.08;100944.50;7388802;19;19923;-79
2023/08/31 10:50:20;;;;;;;2.15;0.50;;;;;;;15.61;76.57;100942.84;7399910;19;19926;-77
2023/08/31 10:52:49;;;;;;;1.48;0.65;;;;;;;15.96;77.25;100940.75;7400537;19;19930;-78
2023/08/31 10:55:18;;;;;;;1.30;0.40;;;;;;;16.26;75.92;100932.97;7399316;19;19919;-79
2023/08/31 10:58:12;;;;;;;2.78;0.55;;;;;;;16.55;75.42;100935.19;7391975;19;19994;-78
2023/08/31 11:00:50;;;;;;;1.73;0.47;;;;;;;16.93;75.69;100928.97;7400934;19;20471;-78
2023/08/31 11:03:21;;;;;;;2.45;0.40;;;;;;;17.00;74.42;100935.25;7397818;19;19922;-78
2023/08/31 11:05:56;;;;;;;3.03;0.40;;;;;;;16.96;74.30;100920.38;7387287;19;19944;-78
2023/08/31 11:08:26;;;;;;;2.63;0.40;;;;;;;16.90;73.52;100935.69;7366764;19;19922;-76
2023/08/31 11:10:54;;;;;;;1.63;0.40;;;;;;;17.04;72.77;100928.31;7401233;19;19930;-78
2023/08/31 11:13:25;;;;;;;1.75;0.30;;;;;;;17.31;70.15;100921.63;7399059;19;20812;-78
2023/08/31 11:15:53;;;;;;;3.55;0.40;;;;;;;17.49;67.02;100920.88;7391927;19;20358;-77
2023/08/31 11:18:26;;;;;;;0.60;0.30;;;;;;;17.74;67.23;100934.53;7400753;19;19927;-77
2023/08/31 11:20:55;;;;;;;0.80;0.38;;;;;;;17.83;66.55;100960.47;7400300;19;19946;-77
2023/08/31 11:23:24;;;;;;;0.63;0.40;;;;;;;17.97;66.56;100929.31;7399045;19;19922;-75
2023/08/31 11:25:53;;;;;;;2.25;0.30;;;;;;;18.09;65.89;100936.53;7391559;19;20374;-76
2023/08/31 11:28:22;;;;;;;1.98;0.40;;;;;;;18.17;64.15;100940.84;7390188;19;19922;-78
2023/08/31 11:30:51;;;;;;;2.72;0.90;;;;;;;18.36;63.84;100933.53;7397205;19;19922;-78
2023/08/31 11:33:20;;;;;;;0.60;0.40;;;;;;;18.54;62.65;100948.06;7403401;19;20463;-77
2023/08/31 11:35:51;;;;;;;1.15;0.47;;;;;;;18.23;61.98;100944.56;7405512;19;19930;-76
2023/08/31 11:38:20;;;;;;;2.28;0.88;;;;;;;18.23;63.11;100947.31;7397007;19;19950;-77
2023/08/31 11:40:49;;;;;;;5.07;0.70;;;;;;;18.58;63.79;100945.69;7394652;19;19930;-78
2023/08/31 11:43:19;;;;;;;2.72;0.93;;;;;;;18.98;61.72;100940.59;7397526;19;19922;-78